Time;durP1;ratioP1;P1;durP2;ratioP2;P2;SDS_P1;SDS_P2;PMS_P1;PMS_P2;Temp;Humidity;BMP_temperature;BMP_pressure;BME280_temperature;BME280_humidity;BME280_pressure;Samples;Min_cycle;Max_cycle;Signal;HPM_P1;HPM_P2
2021/12/31 00:00:15;;;;;;;635.30;149.10;;;;;;;;;;5018683;28;20026;-72
2021/12/31 00:02:43;;;;;;;548.40;145.40;;;;;;;;;;5017455;28;20022;-72
2021/12/31 00:05:11;;;;;;;523.30;137.82;;;;;;;;;;5018543;28;20037;-72
2021/12/31 00:07:38;;;;;;;420.83;123.60;;;;;;;;;;5017456;28;20025;-72
2021/12/31 00:10:06;;;;;;;581.47;145.90;;;;;;;;;;5018618;28;20021;-72
2021/12/31 00:12:34;;;;;;;602.85;145.35;;;;;;;;;;5018713;28;20030;-72
2021/12/31 00:15:02;;;;;;;833.60;173.50;;;;;;;;;;5017630;28;20045;-72
2021/12/31 00:17:31;;;;;;;438.42;126.53;;;;;;;;;;5016544;28;20061;-72
2021/12/31 00:20:04;;;;;;;523.08;141.55;;;;;;;;;;5016033;28;20042;-72
2021/12/31 00:25:20;;;;;;;558.30;140.25;;;;;;;;;;5016715;28;20088;-72
2021/12/31 00:27:48;;;;;;;617.38;147.15;;;;;;;;;;4999739;28;20038;-72
2021/12/31 00:30:16;;;;;;;402.90;119.05;;;;;;;;;;5016360;28;20056;-72
2021/12/31 00:32:44;;;;;;;462.58;127.93;;;;;;;;;;5000061;28;20030;-72
2021/12/31 00:35:11;;;;;;;456.50;129.70;;;;;;;;;;5000067;28;20141;-72
2021/12/31 00:37:39;;;;;;;433.85;122.40;;;;;;;;;;5016523;28;20030;-72
2021/12/31 00:40:09;;;;;;;490.02;131.70;;;;;;;;;;5000009;28;20026;-71
2021/12/31 00:42:37;;;;;;;436.27;123.20;;;;;;;;;;4999827;28;20134;-71
2021/12/31 00:45:04;;;;;;;477.33;132.80;;;;;;;;;;5016486;28;20169;-71
2021/12/31 00:47:35;;;;;;;455.80;129.43;;;;;;;;;;5016546;28;20415;-71
2021/12/31 00:50:03;;;;;;;513.38;142.45;;;;;;;;;;5017151;28;20049;-71
2021/12/31 00:52:31;;;;;;;433.55;126.35;;;;;;;;;;5018402;28;20026;-71
2021/12/31 00:54:59;;;;;;;515.78;134.10;;;;;;;;;;5018255;28;20029;-71
2021/12/31 00:57:27;;;;;;;435.95;121.75;;;;;;;;;;5026398;28;20030;-71
2021/12/31 00:59:57;;;;;;;425.80;124.05;;;;;;;;;;5030121;28;20033;-71
2021/12/31 01:02:28;;;;;;;465.73;129.30;;;;;;;;;;5018001;28;20390;-71
2021/12/31 01:04:56;;;;;;;473.75;131.82;;;;;;;;;;5037726;28;20010;-71
2021/12/31 01:07:23;;;;;;;450.88;128.55;;;;;;;;;;5039134;28;20044;-71
2021/12/31 01:09:52;;;;;;;584.97;140.93;;;;;;;;;;5038682;28;20049;-71
2021/12/31 01:12:20;;;;;;;658.70;148.68;;;;;;;;;;5039158;28;20010;-71
2021/12/31 01:17:37;;;;;;;404.38;120.28;;;;;;;;;;5018623;28;20022;-70
2021/12/31 01:20:06;;;;;;;506.40;129.70;;;;;;;;;;5017598;28;20044;-71
2021/12/31 01:22:34;;;;;;;483.98;132.30;;;;;;;;;;5017597;28;20032;-71
2021/12/31 01:25:04;;;;;;;755.33;165.93;;;;;;;;;;5018664;28;20030;-71
2021/12/31 01:27:32;;;;;;;409.75;124.38;;;;;;;;;;5017478;28;20033;-71
2021/12/31 01:30:00;;;;;;;581.58;144.70;;;;;;;;;;5018020;28;20435;-71
2021/12/31 01:32:29;;;;;;;487.40;136.70;;;;;;;;;;5016154;28;20033;-72
2021/12/31 01:34:57;;;;;;;468.13;136.20;;;;;;;;;;5017139;28;20493;-73
2021/12/31 01:37:24;;;;;;;429.95;127.35;;;;;;;;;;5016180;28;20026;-74
2021/12/31 01:39:52;;;;;;;424.80;131.25;;;;;;;;;;4976130;28;20330;-72
2021/12/31 01:42:27;;;;;;;475.83;135.60;;;;;;;;;;4976145;28;20160;-72
2021/12/31 01:44:58;;;;;;;600.33;150.93;;;;;;;;;;4976006;28;20031;-72
2021/12/31 01:47:54;;;;;;;491.67;138.70;;;;;;;;;;4975956;28;20030;-71
2021/12/31 01:50:15;;;;;;;441.30;131.65;;;;;;;;;;4974418;28;20089;-73
2021/12/31 01:52:43;;;;;;;522.47;136.63;;;;;;;;;;4976035;28;20046;-73
2021/12/31 01:55:11;;;;;;;641.55;154.02;;;;;;;;;;4976004;28;20026;-73
2021/12/31 01:57:39;;;;;;;494.40;135.73;;;;;;;;;;4975719;28;20034;-71
2021/12/31 02:00:08;;;;;;;679.25;160.52;;;;;;;;;;4975601;28;20030;-69
2021/12/31 02:02:36;;;;;;;541.10;144.25;;;;;;;;;;4959534;28;20082;-73
2021/12/31 02:05:04;;;;;;;465.60;136.85;;;;;;;;;;4975734;28;20035;-68
2021/12/31 02:07:32;;;;;;;409.27;127.63;;;;;;;;;;4975668;28;20173;-71
2021/12/31 02:09:59;;;;;;;577.28;161.48;;;;;;;;;;4975414;28;20345;-70
2021/12/31 02:12:27;;;;;;;507.67;141.25;;;;;;;;;;4959658;28;20411;-70
2021/12/31 02:14:55;;;;;;;448.05;131.13;;;;;;;;;;4975606;28;20031;-71
2021/12/31 02:17:22;;;;;;;743.28;162.63;;;;;;;;;;4959242;28;20041;-72
2021/12/31 02:20:05;;;;;;;502.17;136.93;;;;;;;;;;4975414;28;20038;-71
2021/12/31 02:22:38;;;;;;;581.38;144.93;;;;;;;;;;4976483;28;20030;-71
2021/12/31 02:25:06;;;;;;;484.65;131.55;;;;;;;;;;5015312;28;20041;-71
2021/12/31 02:27:38;;;;;;;413.52;121.20;;;;;;;;;;5016433;28;20108;-71
2021/12/31 02:30:06;;;;;;;521.92;133.35;;;;;;;;;;5016089;28;20157;-70
2021/12/31 02:32:34;;;;;;;554.17;141.70;;;;;;;;;;5015256;28;20029;-70
2021/12/31 02:35:02;;;;;;;596.22;156.18;;;;;;;;;;5016197;28;20014;-72
2021/12/31 02:37:30;;;;;;;466.20;133.10;;;;;;;;;;5016146;28;20026;-72
2021/12/31 02:39:57;;;;;;;451.42;135.13;;;;;;;;;;5015075;28;20036;-70
2021/12/31 02:42:25;;;;;;;532.85;137.93;;;;;;;;;;5015975;28;20082;-69
2021/12/31 02:44:55;;;;;;;430.98;120.97;;;;;;;;;;5015701;28;20026;-70
2021/12/31 02:47:23;;;;;;;474.42;121.90;;;;;;;;;;5016022;28;20022;-69
2021/12/31 02:49:49;;;;;;;539.67;133.18;;;;;;;;;;5015979;28;20042;-75
2021/12/31 02:52:17;;;;;;;584.95;155.93;;;;;;;;;;5015860;28;20049;-71
2021/12/31 02:54:47;;;;;;;556.55;155.43;;;;;;;;;;5016036;28;20030;-72
2021/12/31 02:57:15;;;;;;;579.78;149.60;;;;;;;;;;5033124;28;20044;-73
2021/12/31 02:59:44;;;;;;;439.20;125.32;;;;;;;;;;5034566;28;20111;-70
2021/12/31 03:02:12;;;;;;;601.85;148.80;;;;;;;;;;5035657;28;20028;-71
2021/12/31 03:04:40;;;;;;;419.45;119.47;;;;;;;;;;5035715;28;20025;-71
2021/12/31 03:07:09;;;;;;;405.00;113.13;;;;;;;;;;5034551;28;20079;-71
2021/12/31 03:09:45;;;;;;;418.33;118.72;;;;;;;;;;5034198;28;20033;-69
2021/12/31 03:12:13;;;;;;;413.02;123.20;;;;;;;;;;5035652;28;20076;-71
2021/12/31 03:14:43;;;;;;;380.33;111.45;;;;;;;;;;5035573;28;20021;-70
2021/12/31 03:17:13;;;;;;;439.98;120.93;;;;;;;;;;5038061;28;20108;-72
2021/12/31 03:19:42;;;;;;;427.05;122.88;;;;;;;;;;5040254;28;20690;-73
2021/12/31 03:22:10;;;;;;;437.52;128.73;;;;;;;;;;5035786;28;20030;-73
2021/12/31 03:24:37;;;;;;;447.13;130.32;;;;;;;;;;5035990;28;20030;-72
2021/12/31 03:27:05;;;;;;;448.15;133.93;;;;;;;;;;5035205;28;20038;-73
2021/12/31 03:29:33;;;;;;;447.90;135.10;;;;;;;;;;5034738;28;20087;-73
2021/12/31 03:32:01;;;;;;;453.00;144.18;;;;;;;;;;5035618;28;20079;-73
2021/12/31 03:34:28;;;;;;;419.38;141.73;;;;;;;;;;5035229;28;20081;-71
2021/12/31 03:36:56;;;;;;;428.60;138.30;;;;;;;;;;5035156;28;20373;-72
2021/12/31 03:39:24;;;;;;;425.17;144.75;;;;;;;;;;5034610;28;20032;-71
2021/12/31 03:41:51;;;;;;;446.30;152.65;;;;;;;;;;5035716;28;20029;-73
2021/12/31 03:44:21;;;;;;;398.77;137.98;;;;;;;;;;5035287;28;20021;-69
2021/12/31 03:46:49;;;;;;;386.95;147.65;;;;;;;;;;5034850;28;20022;-71
2021/12/31 03:49:15;;;;;;;370.77;137.07;;;;;;;;;;5051239;28;20120;-70
2021/12/31 03:51:43;;;;;;;374.52;142.45;;;;;;;;;;5026920;28;20092;-71
2021/12/31 03:54:10;;;;;;;439.52;168.13;;;;;;;;;;5030312;28;20053;-72
2021/12/31 03:56:38;;;;;;;379.58;146.30;;;;;;;;;;5024826;28;20427;-73
2021/12/31 03:59:05;;;;;;;392.00;152.70;;;;;;;;;;5028477;28;20084;-73
2021/12/31 04:01:33;;;;;;;421.90;177.75;;;;;;;;;;5026812;28;20411;-75
2021/12/31 04:04:07;;;;;;;362.77;139.60;;;;;;;;;;5025191;28;20026;-70
2021/12/31 04:06:35;;;;;;;291.27;111.32;;;;;;;;;;5031453;28;20241;-72
2021/12/31 04:09:03;;;;;;;259.83;102.72;;;;;;;;;;5018345;28;20026;-70
2021/12/31 04:11:30;;;;;;;216.02;87.90;;;;;;;;;;5027361;28;20036;-70
2021/12/31 04:13:58;;;;;;;183.15;78.38;;;;;;;;;;5058150;28;20049;-70
2021/12/31 04:16:25;;;;;;;189.35;75.22;;;;;;;;;;5057988;28;20025;-70
2021/12/31 04:18:53;;;;;;;128.93;54.65;;;;;;;;;;5058191;28;20052;-70
2021/12/31 04:21:23;;;;;;;109.32;52.25;;;;;;;;;;5057944;28;20040;-70
2021/12/31 04:24:06;;;;;;;136.60;57.58;;;;;;;;;;5056708;28;20025;-71
2021/12/31 04:26:34;;;;;;;132.50;57.13;;;;;;;;;;5056944;28;20029;-71
2021/12/31 04:29:01;;;;;;;169.05;76.30;;;;;;;;;;5039118;28;20360;-72
2021/12/31 04:31:29;;;;;;;221.50;106.68;;;;;;;;;;5037757;28;20143;-71
2021/12/31 04:33:58;;;;;;;236.25;110.35;;;;;;;;;;5037304;28;20110;-72
2021/12/31 04:36:26;;;;;;;226.10;102.25;;;;;;;;;;5037442;28;20026;-72
2021/12/31 04:38:54;;;;;;;264.13;127.07;;;;;;;;;;5036326;28;20018;-72
2021/12/31 04:41:22;;;;;;;318.50;149.45;;;;;;;;;;5037536;28;20025;-72
2021/12/31 04:43:49;;;;;;;267.23;129.35;;;;;;;;;;5037438;28;20032;-71
2021/12/31 04:46:17;;;;;;;255.90;120.63;;;;;;;;;;5037404;28;20025;-71
2021/12/31 04:48:43;;;;;;;392.23;180.23;;;;;;;;;;5037338;28;20501;-71
2021/12/31 04:51:11;;;;;;;467.88;225.63;;;;;;;;;;5036323;28;20033;-71
2021/12/31 04:53:38;;;;;;;385.35;185.70;;;;;;;;;;5037570;28;20018;-70
2021/12/31 04:56:06;;;;;;;435.98;213.95;;;;;;;;;;5037775;28;20084;-71
2021/12/31 04:58:33;;;;;;;434.15;214.65;;;;;;;;;;5036527;28;20022;-72
2021/12/31 05:01:01;;;;;;;373.60;178.68;;;;;;;;;;5036365;28;20053;-69
2021/12/31 05:03:29;;;;;;;354.92;170.52;;;;;;;;;;5037447;28;20040;-69
2021/12/31 05:05:56;;;;;;;361.70;172.52;;;;;;;;;;5037161;28;20029;-70
2021/12/31 05:08:24;;;;;;;281.15;128.20;;;;;;;;;;5037234;28;20101;-70
2021/12/31 05:10:51;;;;;;;165.85;76.28;;;;;;;;;;5036247;28;20037;-69
2021/12/31 05:13:20;;;;;;;165.20;76.03;;;;;;;;;;5037309;28;20365;-71
2021/12/31 05:15:50;;;;;;;142.25;65.95;;;;;;;;;;5036198;28;20418;-70
2021/12/31 05:18:18;;;;;;;109.20;47.85;;;;;;;;;;5037011;28;20362;-71
2021/12/31 05:20:46;;;;;;;104.00;47.42;;;;;;;;;;5037002;28;20033;-72
2021/12/31 05:23:14;;;;;;;112.35;52.47;;;;;;;;;;5035904;28;20105;-72
2021/12/31 05:25:45;;;;;;;191.20;91.90;;;;;;;;;;5038104;28;20029;-71
2021/12/31 05:28:12;;;;;;;239.27;120.00;;;;;;;;;;5037091;28;20100;-71
2021/12/31 05:30:40;;;;;;;275.10;129.52;;;;;;;;;;5036757;28;20049;-72
2021/12/31 05:33:07;;;;;;;261.13;123.82;;;;;;;;;;5036779;28;20033;-72
2021/12/31 05:35:35;;;;;;;244.80;127.05;;;;;;;;;;5036619;28;20018;-70
2021/12/31 05:38:03;;;;;;;247.60;125.60;;;;;;;;;;5036834;28;20422;-75
2021/12/31 05:40:31;;;;;;;231.27;117.13;;;;;;;;;;5036828;28;20470;-72
2021/12/31 05:42:58;;;;;;;260.10;123.30;;;;;;;;;;5035758;28;20028;-72
2021/12/31 05:45:26;;;;;;;268.23;131.00;;;;;;;;;;5036782;28;20430;-72
2021/12/31 05:47:56;;;;;;;277.40;132.98;;;;;;;;;;5036789;28;20427;-71
2021/12/31 05:50:29;;;;;;;158.77;75.03;;;;;;;;;;5035382;28;20037;-71
2021/12/31 05:52:57;;;;;;;175.60;84.53;;;;;;;;;;5036702;28;20130;-73
2021/12/31 05:55:25;;;;;;;99.28;44.72;;;;;;;;;;5035303;28;20064;-68
2021/12/31 05:57:55;;;;;;;57.42;26.83;;;;;;;;;;4995429;28;20153;-69
2021/12/31 06:00:26;;;;;;;40.97;18.77;;;;;;;;;;4995423;28;20030;-69
2021/12/31 06:02:54;;;;;;;29.73;11.98;;;;;;;;;;4995337;28;20037;-69
2021/12/31 06:05:25;;;;;;;20.10;9.27;;;;;;;;;;4979027;28;20019;-69
2021/12/31 06:07:55;;;;;;;20.83;8.45;;;;;;;;;;4995329;28;20026;-69
2021/12/31 06:10:23;;;;;;;18.35;7.45;;;;;;;;;;4978759;28;20466;-69
2021/12/31 06:12:57;;;;;;;24.85;8.88;;;;;;;;;;4978892;28;20033;-69
2021/12/31 06:15:25;;;;;;;17.30;7.88;;;;;;;;;;4995105;28;20352;-69
2021/12/31 06:17:53;;;;;;;23.27;8.73;;;;;;;;;;4978331;28;20486;-69
2021/12/31 06:20:21;;;;;;;20.45;8.65;;;;;;;;;;4978635;28;20121;-69
2021/12/31 06:22:48;;;;;;;28.75;10.93;;;;;;;;;;4978514;28;20037;-69
2021/12/31 06:25:15;;;;;;;28.40;12.30;;;;;;;;;;4978489;28;20057;-71
2021/12/31 06:27:43;;;;;;;23.17;11.13;;;;;;;;;;4978576;28;20045;-70
2021/12/31 06:30:11;;;;;;;19.50;8.10;;;;;;;;;;4994814;28;20038;-70
2021/12/31 06:32:38;;;;;;;19.13;7.65;;;;;;;;;;4978603;28;20531;-71
2021/12/31 06:35:06;;;;;;;23.58;10.25;;;;;;;;;;4978548;28;20061;-71
2021/12/31 06:37:34;;;;;;;24.52;11.93;;;;;;;;;;4994909;28;20037;-71
2021/12/31 06:40:04;;;;;;;21.17;11.10;;;;;;;;;;4994832;28;20031;-71
2021/12/31 06:42:32;;;;;;;22.00;10.63;;;;;;;;;;5029535;28;20036;-71
2021/12/31 06:45:00;;;;;;;21.67;9.23;;;;;;;;;;5034848;28;20098;-71
2021/12/31 06:47:30;;;;;;;21.38;9.48;;;;;;;;;;5034841;28;20033;-70
2021/12/31 06:49:58;;;;;;;19.58;8.40;;;;;;;;;;5035628;28;20046;-70
2021/12/31 06:52:25;;;;;;;18.33;8.43;;;;;;;;;;5036091;28;20052;-72
2021/12/31 06:54:53;;;;;;;19.65;9.27;;;;;;;;;;5035905;28;20033;-71
2021/12/31 06:57:21;;;;;;;27.85;11.88;;;;;;;;;;5033889;28;20033;-71
2021/12/31 06:59:48;;;;;;;30.65;14.20;;;;;;;;;;5017577;28;20385;-71
2021/12/31 07:02:16;;;;;;;34.92;14.15;;;;;;;;;;5017397;28;20038;-70
2021/12/31 07:04:44;;;;;;;34.03;13.95;;;;;;;;;;5017480;28;20021;-72
2021/12/31 07:07:12;;;;;;;33.33;13.18;;;;;;;;;;5017460;28;20038;-71
2021/12/31 07:09:39;;;;;;;29.15;12.30;;;;;;;;;;5017226;28;20037;-71
2021/12/31 07:12:07;;;;;;;28.17;12.85;;;;;;;;;;5033901;28;20459;-72
2021/12/31 07:14:34;;;;;;;27.20;12.63;;;;;;;;;;5017409;28;20029;-72
2021/12/31 07:17:02;;;;;;;23.48;10.57;;;;;;;;;;5033824;28;20033;-71
2021/12/31 07:19:30;;;;;;;21.85;9.65;;;;;;;;;;5017262;28;20377;-71
2021/12/31 07:21:58;;;;;;;23.55;8.23;;;;;;;;;;5017229;28;20443;-70
2021/12/31 07:24:25;;;;;;;19.08;8.98;;;;;;;;;;5016982;28;20044;-71
2021/12/31 07:26:53;;;;;;;25.60;10.80;;;;;;;;;;5033819;28;20462;-71
2021/12/31 07:29:21;;;;;;;30.38;12.57;;;;;;;;;;5033330;28;20449;-71
2021/12/31 07:31:48;;;;;;;32.30;13.45;;;;;;;;;;5039217;28;20030;-71
2021/12/31 07:34:16;;;;;;;17.70;8.20;;;;;;;;;;5039306;28;20021;-71
2021/12/31 07:36:46;;;;;;;15.13;6.47;;;;;;;;;;5038293;28;20028;-71
2021/12/31 07:39:14;;;;;;;13.50;6.82;;;;;;;;;;5038186;28;20128;-71
2021/12/31 07:41:41;;;;;;;16.67;8.00;;;;;;;;;;5038184;28;20160;-71
2021/12/31 07:44:09;;;;;;;23.75;13.32;;;;;;;;;;5038055;28;20079;-70
2021/12/31 07:46:36;;;;;;;20.92;10.27;;;;;;;;;;5039075;28;20026;-71
2021/12/31 07:49:03;;;;;;;17.58;8.05;;;;;;;;;;5037735;28;20068;-70
2021/12/31 07:51:29;;;;;;;14.02;7.55;;;;;;;;;;5038808;28;20025;-71
2021/12/31 07:53:57;;;;;;;19.48;9.20;;;;;;;;;;5038685;28;20026;-70
2021/12/31 07:56:24;;;;;;;28.88;10.90;;;;;;;;;;5038763;28;20411;-72
2021/12/31 07:58:52;;;;;;;30.15;12.20;;;;;;;;;;5037721;28;20029;-70
2021/12/31 08:01:19;;;;;;;44.08;15.25;;;;;;;;;;5037549;28;20030;-71
2021/12/31 08:03:47;;;;;;;47.45;22.00;;;;;;;;;;5038661;28;20026;-70
2021/12/31 08:06:14;;;;;;;48.53;23.25;;;;;;;;;;5038744;28;20151;-70
2021/12/31 08:08:42;;;;;;;39.72;21.48;;;;;;;;;;5037535;28;20028;-71
2021/12/31 08:11:09;;;;;;;44.00;22.02;;;;;;;;;;5038895;28;20422;-71
2021/12/31 08:13:37;;;;;;;37.63;18.77;;;;;;;;;;5037436;28;20025;-72
2021/12/31 08:16:04;;;;;;;30.73;14.88;;;;;;;;;;5038447;28;20338;-71
2021/12/31 08:18:32;;;;;;;23.77;10.95;;;;;;;;;;5038312;28;20022;-71
2021/12/31 08:20:59;;;;;;;28.63;11.32;;;;;;;;;;5038380;28;20022;-72
2021/12/31 08:23:27;;;;;;;26.15;10.95;;;;;;;;;;5038173;28;20053;-71
2021/12/31 08:25:54;;;;;;;23.08;9.52;;;;;;;;;;5038426;28;20040;-69
2021/12/31 08:28:22;;;;;;;17.33;6.95;;;;;;;;;;5038239;28;20489;-69
2021/12/31 08:30:50;;;;;;;15.65;5.95;;;;;;;;;;5038059;28;20083;-70
2021/12/31 08:33:17;;;;;;;12.93;5.80;;;;;;;;;;5036968;28;20308;-70
2021/12/31 08:35:45;;;;;;;24.17;8.52;;;;;;;;;;5038064;28;20032;-70
2021/12/31 08:38:13;;;;;;;25.65;8.25;;;;;;;;;;5037248;28;20407;-69
2021/12/31 08:40:40;;;;;;;26.00;10.18;;;;;;;;;;5036850;28;20029;-70
2021/12/31 08:43:08;;;;;;;23.85;11.43;;;;;;;;;;5037411;28;20036;-70
2021/12/31 08:45:36;;;;;;;32.30;15.48;;;;;;;;;;5036747;28;20033;-70
2021/12/31 08:48:03;;;;;;;19.80;9.25;;;;;;;;;;5037655;28;20028;-70
2021/12/31 08:50:31;;;;;;;16.48;6.88;;;;;;;;;;5036699;28;20422;-71
2021/12/31 08:52:59;;;;;;;18.05;6.65;;;;;;;;;;5036635;28;20029;-70
2021/12/31 08:55:26;;;;;;;19.05;7.05;;;;;;;;;;5036702;28;20028;-71
2021/12/31 08:57:54;;;;;;;20.05;7.47;;;;;;;;;;5037745;28;20480;-70
2021/12/31 09:00:22;;;;;;;18.58;7.47;;;;;;;;;;5037673;28;20033;-71
2021/12/31 09:02:50;;;;;;;25.20;9.27;;;;;;;;;;5037578;28;20026;-70
2021/12/31 09:05:18;;;;;;;22.35;9.30;;;;;;;;;;5036499;28;20056;-70
2021/12/31 09:07:46;;;;;;;18.65;8.38;;;;;;;;;;4979662;28;20037;-70
2021/12/31 09:10:14;;;;;;;321.20;169.98;;;;;;;;;;4979545;28;20089;-70
2021/12/31 09:12:46;;;;;;;289.63;152.70;;;;;;;;;;4979933;28;20026;-70
2021/12/31 09:15:14;;;;;;;320.33;177.32;;;;;;;;;;4996349;28;20038;-70
2021/12/31 09:17:42;;;;;;;317.38;169.13;;;;;;;;;;4996378;28;20077;-72
2021/12/31 09:20:10;;;;;;;446.50;247.40;;;;;;;;;;4979781;28;20117;-71
2021/12/31 09:22:38;;;;;;;401.88;226.50;;;;;;;;;;4995932;28;20034;-71
2021/12/31 09:25:05;;;;;;;344.90;187.40;;;;;;;;;;4995850;28;20042;-71
2021/12/31 09:27:33;;;;;;;426.23;234.20;;;;;;;;;;4979417;28;20026;-70
2021/12/31 09:30:01;;;;;;;432.42;242.07;;;;;;;;;;4995702;28;20061;-71
2021/12/31 09:32:28;;;;;;;469.40;260.13;;;;;;;;;;4956936;29;20031;-70
2021/12/31 09:34:56;;;;;;;504.63;285.58;;;;;;;;;;4956758;29;20031;-70
2021/12/31 09:37:23;;;;;;;477.38;266.02;;;;;;;;;;4956764;29;20042;-71
2021/12/31 09:39:51;;;;;;;451.25;256.70;;;;;;;;;;4956857;29;20318;-70
2021/12/31 09:42:18;;;;;;;453.00;250.00;;;;;;;;;;4956904;29;20495;-71
2021/12/31 09:44:49;;;;;;;443.23;255.05;;;;;;;;;;4956793;29;20065;-71
2021/12/31 09:47:17;;;;;;;483.95;277.27;;;;;;;;;;4956738;29;20031;-71
2021/12/31 09:49:44;;;;;;;395.30;225.23;;;;;;;;;;4956395;29;20047;-70
2021/12/31 09:52:11;;;;;;;370.67;210.05;;;;;;;;;;4956700;29;20477;-71
2021/12/31 09:54:46;;;;;;;374.95;210.82;;;;;;;;;;4957037;29;20035;-71
2021/12/31 09:57:20;;;;;;;425.67;238.68;;;;;;;;;;4966650;28;20030;-71
2021/12/31 09:59:48;;;;;;;446.83;252.15;;;;;;;;;;4998389;28;20022;-71
2021/12/31 10:02:16;;;;;;;436.83;242.00;;;;;;;;;;4998523;28;20030;-71
2021/12/31 10:04:59;;;;;;;431.52;247.68;;;;;;;;;;5036351;28;20029;-71
2021/12/31 10:07:29;;;;;;;409.40;236.27;;;;;;;;;;5035078;28;20030;-71
2021/12/31 10:10:11;;;;;;;403.98;227.32;;;;;;;;;;5036332;28;20421;-71
2021/12/31 10:12:59;;;;;;;400.83;222.93;;;;;;;;;;5036215;28;20029;-71
2021/12/31 10:15:27;;;;;;;394.02;215.48;;;;;;;;;;5035096;28;20091;-71
2021/12/31 10:17:55;;;;;;;386.25;218.80;;;;;;;;;;5036159;28;20035;-71
2021/12/31 10:20:23;;;;;;;388.77;216.18;;;;;;;;;;5035080;28;20053;-71
2021/12/31 10:22:51;;;;;;;383.38;217.93;;;;;;;;;;5035993;28;20083;-71
2021/12/31 10:25:20;;;;;;;389.20;216.90;;;;;;;;;;5036050;28;20025;-71
2021/12/31 10:27:49;;;;;;;407.83;225.40;;;;;;;;;;5036115;28;20170;-71
2021/12/31 10:30:22;;;;;;;403.75;223.45;;;;;;;;;;5035854;28;20029;-71
2021/12/31 10:32:50;;;;;;;406.83;228.05;;;;;;;;;;5034748;28;20430;-71
2021/12/31 10:35:19;;;;;;;434.25;238.82;;;;;;;;;;5034876;28;20030;-70
2021/12/31 10:37:50;;;;;;;436.00;237.82;;;;;;;;;;5034693;28;20036;-71
2021/12/31 10:40:32;;;;;;;433.50;243.05;;;;;;;;;;5034669;28;20036;-71
2021/12/31 10:43:17;;;;;;;457.85;256.48;;;;;;;;;;5035596;28;20060;-70
2021/12/31 10:46:08;;;;;;;460.85;263.75;;;;;;;;;;5034640;28;20040;-71
2021/12/31 10:48:45;;;;;;;453.38;254.30;;;;;;;;;;5034377;28;20067;-70
2021/12/31 10:51:13;;;;;;;459.33;248.20;;;;;;;;;;5035459;28;20053;-71
2021/12/31 10:53:43;;;;;;;476.98;256.77;;;;;;;;;;5034602;28;20022;-71
2021/12/31 10:56:13;;;;;;;482.27;262.55;;;;;;;;;;5035853;28;20026;-71
2021/12/31 10:58:43;;;;;;;493.05;267.70;;;;;;;;;;5035891;28;20025;-71
2021/12/31 11:01:12;;;;;;;488.10;264.85;;;;;;;;;;5035683;28;20032;-70
2021/12/31 11:03:40;;;;;;;471.98;258.73;;;;;;;;;;5034591;28;20049;-71
2021/12/31 11:06:10;;;;;;;467.23;252.65;;;;;;;;;;4981443;28;20046;-71
2021/12/31 11:08:37;;;;;;;466.58;249.63;;;;;;;;;;4998366;28;20046;-71
2021/12/31 11:11:05;;;;;;;465.27;247.63;;;;;;;;;;4998268;28;20049;-70
2021/12/31 11:13:33;;;;;;;449.45;236.32;;;;;;;;;;4981894;28;20491;-71
2021/12/31 11:16:01;;;;;;;452.33;239.38;;;;;;;;;;4998333;28;20308;-70
2021/12/31 11:18:28;;;;;;;461.63;241.55;;;;;;;;;;4998161;28;20109;-71
2021/12/31 11:20:58;;;;;;;450.23;239.35;;;;;;;;;;4998133;28;20169;-70
2021/12/31 11:23:32;;;;;;;479.52;255.95;;;;;;;;;;4965979;28;20030;-71
2021/12/31 11:26:05;;;;;;;523.05;275.52;;;;;;;;;;4981877;28;20037;-72
2021/12/31 11:28:38;;;;;;;501.45;260.50;;;;;;;;;;4981836;28;20038;-71
2021/12/31 11:31:26;;;;;;;525.17;274.73;;;;;;;;;;4981742;28;20489;-71
2021/12/31 11:34:03;;;;;;;513.60;263.73;;;;;;;;;;4981731;28;20076;-71
2021/12/31 11:36:43;;;;;;;502.27;260.83;;;;;;;;;;4981945;28;20101;-71
2021/12/31 11:39:23;;;;;;;471.25;238.27;;;;;;;;;;4998006;28;20022;-71
2021/12/31 11:41:55;;;;;;;442.90;220.77;;;;;;;;;;4981287;28;20118;-71
2021/12/31 11:44:24;;;;;;;485.08;242.07;;;;;;;;;;4981410;28;20077;-71
2021/12/31 11:46:51;;;;;;;469.20;236.98;;;;;;;;;;4981619;28;20054;-71
2021/12/31 11:49:21;;;;;;;480.60;242.23;;;;;;;;;;4992139;28;20380;-71
2021/12/31 11:52:01;;;;;;;496.42;253.07;;;;;;;;;;5037788;28;20048;-71
2021/12/31 11:54:29;;;;;;;477.67;238.25;;;;;;;;;;5038952;28;20026;-71
2021/12/31 11:56:59;;;;;;;447.45;218.20;;;;;;;;;;5037937;28;20033;-71
2021/12/31 11:59:38;;;;;;;426.98;206.43;;;;;;;;;;5037834;28;20029;-71
2021/12/31 12:02:13;;;;;;;401.88;192.27;;;;;;;;;;5038788;28;20291;-70
2021/12/31 12:04:41;;;;;;;381.70;180.70;;;;;;;;;;5038709;28;20390;-71
2021/12/31 12:07:23;;;;;;;320.80;144.27;;;;;;;;;;5038772;28;20026;-71
2021/12/31 12:09:52;;;;;;;344.98;158.18;;;;;;;;;;5037639;28;20029;-71
2021/12/31 12:12:21;;;;;;;386.50;179.38;;;;;;;;;;5037589;28;20083;-70
2021/12/31 12:14:51;;;;;;;342.10;152.43;;;;;;;;;;5037471;28;20021;-70
2021/12/31 12:17:43;;;;;;;373.33;173.95;;;;;;;;;;5036266;28;20080;-70
2021/12/31 12:20:19;;;;;;;408.00;192.05;;;;;;;;;;5038408;28;20428;-70
2021/12/31 12:22:56;;;;;;;378.10;179.35;;;;;;;;;;5038349;28;20038;-70
2021/12/31 12:25:33;;;;;;;385.98;173.35;;;;;;;;;;5037209;28;20299;-70
2021/12/31 12:28:07;;;;;;;330.50;153.02;;;;;;;;;;5038127;28;20025;-70
2021/12/31 12:30:38;;;;;;;359.17;169.85;;;;;;;;;;5038099;28;20021;-71
2021/12/31 12:35:40;;;;;;;346.17;151.30;;;;;;;;;;5038209;28;20025;-70
2021/12/31 12:38:26;;;;;;;301.20;137.18;;;;;;;;;;5038091;28;20025;-70
2021/12/31 12:40:57;;;;;;;303.92;138.15;;;;;;;;;;5038153;28;20021;-70
2021/12/31 12:43:27;;;;;;;313.20;137.73;;;;;;;;;;5037958;28;20033;-71
2021/12/31 12:46:00;;;;;;;330.85;143.63;;;;;;;;;;5038007;28;20041;-71
2021/12/31 12:48:30;;;;;;;332.92;146.25;;;;;;;;;;5037754;28;20065;-71
2021/12/31 12:50:57;;;;;;;318.52;139.95;;;;;;;;;;5036660;28;20037;-71
2021/12/31 12:53:27;;;;;;;282.45;123.10;;;;;;;;;;5037756;28;20056;-71
2021/12/31 12:56:08;;;;;;;289.85;120.57;;;;;;;;;;5037782;28;20049;-71
2021/12/31 12:58:36;;;;;;;279.15;118.22;;;;;;;;;;5037509;28;20048;-70
2021/12/31 13:01:06;;;;;;;270.58;119.50;;;;;;;;;;5037746;28;20108;-71
2021/12/31 13:03:54;;;;;;;272.27;119.90;;;;;;;;;;5037744;28;20450;-70
2021/12/31 13:06:23;;;;;;;262.65;117.65;;;;;;;;;;5037350;28;20053;-71
2021/12/31 13:09:02;;;;;;;260.30;112.55;;;;;;;;;;5037605;28;20022;-71
2021/12/31 13:11:33;;;;;;;247.75;108.32;;;;;;;;;;5037903;28;20112;-71
2021/12/31 13:14:01;;;;;;;266.58;113.60;;;;;;;;;;5037482;28;20028;-70
2021/12/31 13:16:29;;;;;;;244.48;105.50;;;;;;;;;;5036077;28;20043;-70
2021/12/31 13:18:58;;;;;;;253.30;106.95;;;;;;;;;;5037224;28;20025;-72
2021/12/31 13:21:25;;;;;;;240.60;104.00;;;;;;;;;;5036195;28;20029;-70
2021/12/31 13:23:54;;;;;;;248.07;108.65;;;;;;;;;;5037191;28;20029;-69
2021/12/31 13:26:26;;;;;;;240.45;110.63;;;;;;;;;;5037206;28;20036;-70
2021/12/31 13:28:58;;;;;;;242.30;112.55;;;;;;;;;;5037240;28;20361;-70
2021/12/31 13:31:36;;;;;;;240.02;112.55;;;;;;;;;;5037092;28;20025;-70
2021/12/31 13:34:19;;;;;;;252.35;122.38;;;;;;;;;;5036042;28;20045;-70
2021/12/31 13:36:55;;;;;;;268.40;124.07;;;;;;;;;;5036077;28;20022;-70
2021/12/31 13:39:39;;;;;;;264.58;123.40;;;;;;;;;;5035900;28;20025;-70
2021/12/31 13:42:12;;;;;;;252.73;116.80;;;;;;;;;;5035521;28;20022;-71
2021/12/31 13:44:40;;;;;;;242.20;111.57;;;;;;;;;;5036502;28;20436;-70
2021/12/31 13:47:12;;;;;;;234.57;107.38;;;;;;;;;;5036891;28;20025;-70
2021/12/31 13:49:41;;;;;;;232.13;104.53;;;;;;;;;;5036683;28;20038;-70
2021/12/31 13:52:26;;;;;;;224.15;105.97;;;;;;;;;;5036778;28;20094;-70
2021/12/31 13:54:59;;;;;;;227.10;106.07;;;;;;;;;;5036761;28;20021;-70
2021/12/31 13:57:29;;;;;;;253.38;114.10;;;;;;;;;;5036663;28;20097;-70
2021/12/31 14:00:08;;;;;;;281.10;128.48;;;;;;;;;;5036682;28;20024;-71
2021/12/31 14:02:39;;;;;;;271.30;127.68;;;;;;;;;;5035527;28;20025;-71
2021/12/31 14:05:10;;;;;;;256.38;116.50;;;;;;;;;;5036521;28;20132;-70
2021/12/31 14:07:43;;;;;;;246.65;110.35;;;;;;;;;;5036526;28;20031;-71
2021/12/31 14:10:21;;;;;;;251.48;113.10;;;;;;;;;;5036554;28;20021;-70
2021/12/31 14:12:52;;;;;;;237.63;107.25;;;;;;;;;;5036422;28;20100;-70
2021/12/31 14:15:22;;;;;;;242.80;108.72;;;;;;;;;;5035328;28;20049;-70
2021/12/31 14:17:50;;;;;;;292.75;121.38;;;;;;;;;;5035195;28;20032;-71
2021/12/31 14:20:20;;;;;;;339.30;134.32;;;;;;;;;;5036280;28;20044;-71